Time;durP1;ratioP1;P1;durP2;ratioP2;P2;SDS_P1;SDS_P2;PMS_P1;PMS_P2;Temp;Humidity;BMP_temperature;BMP_pressure;BME280_temperature;BME280_humidity;BME280_pressure;Samples;Min_cycle;Max_cycle;Signal;HPM_P1;HPM_P2
2022/07/09 00:02:07;;;;;;;52.28;31.50;;;27.40;99.90;;;;;;5096118;28;20055;-66
2022/07/09 00:04:33;;;;;;;52.17;29.75;;;27.40;99.90;;;;;;5096312;28;20020;-66
2022/07/09 00:07:00;;;;;;;80.00;28.85;;;27.50;99.90;;;;;;5095928;28;20035;-65
2022/07/09 00:09:26;;;;;;;96.72;41.90;;;27.60;99.90;;;;;;5096051;28;20468;-65
2022/07/09 00:11:53;;;;;;;434.83;57.17;;;27.50;99.90;;;;;;5095799;28;20024;-66
2022/07/09 00:14:20;;;;;;;383.67;57.40;;;27.70;99.90;;;;;;5096196;28;20086;-66
2022/07/09 00:16:46;;;;;;;132.45;32.97;;;27.70;99.90;;;;;;5095916;28;20082;-66
2022/07/09 00:19:14;;;;;;;44.15;23.83;;;27.80;99.90;;;;;;5095443;28;20036;-66
2022/07/09 00:21:40;;;;;;;50.47;29.00;;;27.70;99.90;;;;;;5095789;28;20073;-65
2022/07/09 00:24:07;;;;;;;124.30;67.10;;;27.60;99.90;;;;;;5095832;28;20097;-66
2022/07/09 00:26:33;;;;;;;103.32;55.03;;;27.60;99.90;;;;;;5095368;28;20040;-65
2022/07/09 00:29:00;;;;;;;91.10;52.67;;;27.60;99.90;;;;;;5095680;28;20028;-65
2022/07/09 00:31:26;;;;;;;101.38;52.97;;;27.60;99.90;;;;;;5095673;28;20024;-66
2022/07/09 00:33:54;;;;;;;93.63;55.78;;;27.70;99.90;;;;;;5095850;28;20388;-65
2022/07/09 00:36:21;;;;;;;46.40;23.40;;;27.70;99.90;;;;;;5095891;28;20024;-66
2022/07/09 00:38:47;;;;;;;47.03;23.85;;;27.70;99.90;;;;;;5095725;28;20020;-66
2022/07/09 00:41:14;;;;;;;49.20;23.52;;;27.80;99.90;;;;;;5095423;28;20020;-66
2022/07/09 00:43:49;;;;;;;43.20;21.70;;;27.80;99.90;;;;;;5095474;28;20020;-66
2022/07/09 00:46:17;;;;;;;40.90;19.33;;;27.70;99.90;;;;;;5095274;28;20035;-66
2022/07/09 00:48:43;;;;;;;38.25;19.52;;;27.80;99.90;;;;;;5095272;28;20046;-66
2022/07/09 00:51:13;;;;;;;35.42;18.17;;;27.70;99.90;;;;;;5095208;28;20032;-65
2022/07/09 00:53:40;;;;;;;36.40;19.88;;;27.70;99.90;;;;;;5095105;28;20078;-66
2022/07/09 00:56:07;;;;;;;39.08;20.55;;;27.70;99.90;;;;;;5095020;28;20529;-65
2022/07/09 00:58:35;;;;;;;42.63;20.80;;;27.60;99.90;;;;;;5095114;28;20035;-66
2022/07/09 01:01:02;;;;;;;47.97;25.95;;;27.70;99.90;;;;;;5094984;28;20535;-66
2022/07/09 01:03:29;;;;;;;58.85;30.23;;;27.70;99.90;;;;;;5109582;28;20027;-65
2022/07/09 01:05:56;;;;;;;53.55;27.33;;;27.70;99.90;;;;;;5115189;28;20023;-66
2022/07/09 01:08:23;;;;;;;40.45;21.48;;;27.80;99.90;;;;;;5115280;28;20035;-66
2022/07/09 01:10:51;;;;;;;43.72;24.05;;;27.80;99.90;;;;;;5096705;28;20020;-66
2022/07/09 01:13:18;;;;;;;38.72;22.08;;;27.80;99.90;;;;;;5094738;28;20024;-65
2022/07/09 01:15:45;;;;;;;46.75;22.42;;;27.70;99.90;;;;;;5094781;28;20082;-65
2022/07/09 01:18:12;;;;;;;41.65;23.77;;;27.80;99.90;;;;;;5097845;27;20032;-66
2022/07/09 01:20:39;;;;;;;40.53;20.10;;;27.90;99.90;;;;;;5115219;27;20036;-66
2022/07/09 01:23:06;;;;;;;40.60;19.88;;;27.90;99.90;;;;;;5114977;28;20047;-65
2022/07/09 01:25:44;;;;;;;42.75;21.45;;;28.00;99.90;;;;;;5114373;28;20438;-64
2022/07/09 01:28:11;;;;;;;50.10;23.75;;;28.00;99.90;;;;;;5114893;28;20050;-70
2022/07/09 01:30:39;;;;;;;39.10;17.90;;;28.00;99.90;;;;;;5114033;28;20027;-66
2022/07/09 01:33:06;;;;;;;33.55;15.88;;;28.00;99.90;;;;;;5114788;28;20161;-65
2022/07/09 01:35:32;;;;;;;41.00;18.38;;;28.10;99.90;;;;;;5114765;28;20360;-65
2022/07/09 01:37:59;;;;;;;53.75;24.45;;;28.10;99.90;;;;;;5114629;28;20088;-65
2022/07/09 01:40:26;;;;;;;39.92;19.10;;;28.20;99.90;;;;;;5114370;28;20050;-65
2022/07/09 01:42:52;;;;;;;40.53;20.17;;;28.30;99.90;;;;;;5114664;27;20023;-66
2022/07/09 01:45:19;;;;;;;34.45;16.20;;;28.30;99.90;;;;;;5114454;28;20039;-65
2022/07/09 01:47:46;;;;;;;43.78;21.63;;;28.40;99.90;;;;;;5114431;28;20027;-66
2022/07/09 01:50:12;;;;;;;39.13;16.88;;;28.40;99.90;;;;;;5114412;28;20016;-65
2022/07/09 01:52:39;;;;;;;32.85;15.68;;;28.50;99.90;;;;;;5114384;28;20034;-63
2022/07/09 01:55:06;;;;;;;33.03;16.20;;;28.60;99.90;;;;;;5114272;28;20024;-64
2022/07/09 01:57:33;;;;;;;30.27;16.40;;;28.60;99.90;;;;;;5114484;28;20019;-64
2022/07/09 02:00:00;;;;;;;34.95;14.30;;;28.70;99.90;;;;;;5114586;28;20026;-64
2022/07/09 02:02:26;;;;;;;35.28;17.90;;;28.80;99.90;;;;;;5114296;28;20513;-64
2022/07/09 02:04:53;;;;;;;28.85;14.70;;;28.90;99.90;;;;;;5109139;28;20023;-63
2022/07/09 02:07:19;;;;;;;26.60;13.43;;;29.00;99.90;;;;;;5103466;28;20044;-63
2022/07/09 02:09:46;;;;;;;23.98;12.15;;;29.10;99.90;;;;;;5100811;28;20103;-64
2022/07/09 02:12:12;;;;;;;23.88;11.23;;;29.10;99.90;;;;;;5102971;28;20094;-63
2022/07/09 02:14:39;;;;;;;23.42;10.65;;;29.20;99.90;;;;;;5102205;28;20032;-63
2022/07/09 02:17:06;;;;;;;26.38;12.13;;;29.30;99.90;;;;;;5102321;28;20020;-64
2022/07/09 02:19:33;;;;;;;24.23;12.10;;;29.30;99.90;;;;;;5103339;28;20533;-64
2022/07/09 02:21:59;;;;;;;17.20;9.75;;;29.40;99.90;;;;;;5101389;28;20152;-62
2022/07/09 02:24:26;;;;;;;23.48;9.45;;;29.40;99.90;;;;;;5093441;28;20464;-63
2022/07/09 02:26:52;;;;;;;20.13;9.13;;;29.50;99.90;;;;;;5093423;28;20032;-63
2022/07/09 02:29:19;;;;;;;14.82;8.18;;;29.60;99.90;;;;;;5093540;28;20024;-62
2022/07/09 02:31:45;;;;;;;16.50;8.18;;;29.70;99.90;;;;;;5093561;28;20072;-63
2022/07/09 02:34:12;;;;;;;19.45;8.32;;;29.70;99.90;;;;;;5093430;28;20028;-64
2022/07/09 02:36:38;;;;;;;17.58;8.35;;;29.80;99.90;;;;;;5095875;28;20040;-63
2022/07/09 02:39:05;;;;;;;16.50;8.35;;;29.80;99.90;;;;;;5102400;28;20036;-64
2022/07/09 02:41:32;;;;;;;20.58;8.32;;;29.90;99.90;;;;;;5093856;28;20477;-63
2022/07/09 02:43:58;;;;;;;19.83;9.43;;;29.90;99.90;;;;;;5097674;28;20032;-64
2022/07/09 02:46:25;;;;;;;19.17;8.23;;;30.00;99.90;;;;;;5097583;28;20031;-63
2022/07/09 02:48:51;;;;;;;21.77;7.32;;;29.90;99.90;;;;;;5097702;28;20440;-63
2022/07/09 02:51:18;;;;;;;20.77;7.70;;;30.00;99.90;;;;;;5097487;28;20472;-63
2022/07/09 02:53:44;;;;;;;27.90;10.10;;;30.10;99.90;;;;;;5097416;28;20029;-64
2022/07/09 02:56:11;;;;;;;25.73;10.85;;;30.20;99.90;;;;;;5097304;28;20384;-64
2022/07/09 02:58:37;;;;;;;25.67;9.68;;;30.20;99.90;;;;;;5103716;28;20024;-64
2022/07/09 03:01:05;;;;;;;23.92;8.13;;;30.20;99.90;;;;;;5108732;28;20422;-64
2022/07/09 03:03:35;;;;;;;24.10;8.48;;;30.40;99.90;;;;;;5117733;28;20490;-64
2022/07/09 03:06:03;;;;;;;22.40;8.52;;;30.40;99.90;;;;;;5117574;28;20030;-64
2022/07/09 03:08:29;;;;;;;21.48;8.70;;;30.50;99.90;;;;;;5117558;28;20099;-64
2022/07/09 03:10:56;;;;;;;28.05;8.10;;;30.50;99.90;;;;;;5117450;27;20030;-62
2022/07/09 03:13:23;;;;;;;18.20;8.10;;;30.70;99.90;;;;;;5117459;28;20051;-62
2022/07/09 03:15:49;;;;;;;22.70;10.50;;;30.70;99.90;;;;;;5117551;28;20110;-64
2022/07/09 03:18:16;;;;;;;61.42;43.28;;;30.70;99.90;;;;;;5117436;28;20079;-64
2022/07/09 03:20:42;;;;;;;25.52;8.85;;;30.80;99.90;;;;;;5117399;28;20028;-65
2022/07/09 03:23:09;;;;;;;47.00;24.63;;;30.90;99.30;;;;;;5115176;28;20066;-65
2022/07/09 03:25:35;;;;;;;26.73;14.45;;;31.00;99.10;;;;;;5109552;28;20056;-65
2022/07/09 03:28:02;;;;;;;137.77;82.78;;;31.00;99.00;;;;;;5105285;28;20012;-64
2022/07/09 03:30:28;;;;;;;24.35;9.35;;;31.00;99.20;;;;;;5106536;28;20044;-64
2022/07/09 03:32:55;;;;;;;24.75;11.68;;;31.10;97.80;;;;;;5107140;28;20039;-64
2022/07/09 03:35:21;;;;;;;37.80;19.83;;;31.20;98.70;;;;;;5105031;28;20027;-65
2022/07/09 03:37:48;;;;;;;19.52;9.00;;;31.20;97.50;;;;;;5106255;28;20027;-65
2022/07/09 03:40:15;;;;;;;21.30;8.20;;;31.20;98.10;;;;;;5106678;28;20316;-65
2022/07/09 03:42:41;;;;;;;35.08;15.93;;;31.20;96.60;;;;;;5117044;28;20019;-66
2022/07/09 03:45:08;;;;;;;17.33;7.50;;;31.20;96.80;;;;;;5116819;28;20438;-65
2022/07/09 03:47:34;;;;;;;217.25;144.52;;;31.30;96.00;;;;;;5116818;28;20217;-65
2022/07/09 03:50:02;;;;;;;19.20;10.00;;;31.40;95.90;;;;;;5116932;28;20034;-65
2022/07/09 03:52:28;;;;;;;20.05;8.63;;;31.40;95.00;;;;;;5116840;28;20023;-65
2022/07/09 03:54:55;;;;;;;14.20;6.90;;;31.50;94.90;;;;;;5115929;28;20016;-65
2022/07/09 03:57:21;;;;;;;22.75;10.30;;;31.50;95.10;;;;;;5116598;28;20062;-65
2022/07/09 03:59:48;;;;;;;23.95;12.80;;;31.60;94.50;;;;;;5116714;28;20068;-65
2022/07/09 04:02:14;;;;;;;71.80;24.35;;;31.50;94.50;;;;;;5116501;28;20468;-65
2022/07/09 04:04:43;;;;;;;97.97;34.20;;;31.60;95.00;;;;;;5116613;28;20080;-65
2022/07/09 04:07:10;;;;;;;79.20;31.65;;;31.60;94.60;;;;;;5116488;28;20054;-65
2022/07/09 04:09:37;;;;;;;44.53;17.25;;;31.70;94.00;;;;;;5116212;28;20023;-63
2022/07/09 04:12:04;;;;;;;59.83;33.33;;;31.70;93.80;;;;;;5115827;28;20049;-64
2022/07/09 04:14:30;;;;;;;66.22;32.38;;;31.80;92.80;;;;;;5116256;28;20031;-64
2022/07/09 04:16:57;;;;;;;40.58;17.92;;;31.80;92.70;;;;;;5116520;28;20023;-64
2022/07/09 04:19:23;;;;;;;20.38;11.15;;;31.80;93.40;;;;;;5116282;27;20024;-62
2022/07/09 04:21:50;;;;;;;17.98;8.90;;;32.00;93.10;;;;;;5116060;28;20181;-63
2022/07/09 04:24:16;;;;;;;16.13;8.57;;;32.00;93.10;;;;;;5115783;28;20510;-62
2022/07/09 04:26:46;;;;;;;20.08;11.00;;;32.00;92.30;;;;;;5107677;28;20116;-63
2022/07/09 04:29:12;;;;;;;40.97;23.27;;;32.10;91.50;;;;;;5093742;28;20073;-65
2022/07/09 04:31:39;;;;;;;25.75;10.23;;;32.20;90.80;;;;;;5094123;28;20039;-71
2022/07/09 04:34:05;;;;;;;29.92;9.98;;;32.20;90.80;;;;;;5107385;28;20422;-65
2022/07/09 04:36:32;;;;;;;21.90;9.57;;;32.30;89.40;;;;;;5094798;28;20036;-64
2022/07/09 04:38:59;;;;;;;22.83;7.88;;;32.40;88.90;;;;;;5095096;28;20032;-65
2022/07/09 04:41:25;;;;;;;23.23;8.65;;;32.40;85.90;;;;;;5094878;28;20028;-64
2022/07/09 04:43:52;;;;;;;26.63;15.88;;;32.40;87.00;;;;;;5105870;28;20023;-65
2022/07/09 04:46:20;;;;;;;24.25;12.27;;;32.30;89.20;;;;;;5115434;28;20103;-64
2022/07/09 04:48:47;;;;;;;36.83;15.32;;;32.50;88.70;;;;;;5110981;28;20384;-65
2022/07/09 04:51:13;;;;;;;14.15;6.05;;;32.50;89.60;;;;;;5094618;28;20024;-65
2022/07/09 04:53:40;;;;;;;13.65;5.05;;;32.60;88.80;;;;;;5094850;28;20012;-65
2022/07/09 04:56:07;;;;;;;18.83;10.75;;;32.60;84.90;;;;;;5095040;28;20476;-65
2022/07/09 04:58:34;;;;;;;66.28;50.10;;;32.70;86.40;;;;;;5103548;28;20040;-64
2022/07/09 05:01:00;;;;;;;25.67;9.95;;;32.70;86.60;;;;;;5094765;28;20107;-64
2022/07/09 05:03:27;;;;;;;23.33;7.10;;;32.70;86.50;;;;;;5094889;28;20506;-64
2022/07/09 05:05:53;;;;;;;13.48;4.38;;;32.70;87.00;;;;;;5101044;28;20036;-65
2022/07/09 05:08:20;;;;;;;13.43;4.88;;;32.80;85.30;;;;;;5115104;28;20103;-64
2022/07/09 05:10:46;;;;;;;14.73;5.40;;;32.80;86.90;;;;;;5110335;28;20032;-64
2022/07/09 05:13:13;;;;;;;14.57;4.30;;;32.90;85.80;;;;;;5103515;28;20035;-65
2022/07/09 05:15:39;;;;;;;14.15;5.13;;;32.90;85.30;;;;;;5094473;28;20028;-65
2022/07/09 05:18:06;;;;;;;16.23;7.70;;;33.00;83.90;;;;;;5094334;28;20077;-65
2022/07/09 05:20:35;;;;;;;17.10;8.48;;;33.00;85.80;;;;;;5094564;28;20217;-65
2022/07/09 05:23:01;;;;;;;15.98;7.78;;;33.10;84.40;;;;;;5094329;28;20028;-65
2022/07/09 05:25:28;;;;;;;13.57;5.65;;;33.10;83.60;;;;;;5094087;28;20040;-64
2022/07/09 05:27:54;;;;;;;13.70;6.35;;;33.20;82.60;;;;;;5094038;28;20388;-64
2022/07/09 05:30:21;;;;;;;11.57;6.68;;;33.20;82.30;;;;;;5094336;28;20020;-64
2022/07/09 05:32:47;;;;;;;12.70;6.28;;;33.10;84.90;;;;;;5094466;28;20460;-64
2022/07/09 05:35:14;;;;;;;17.00;5.88;;;33.10;83.50;;;;;;5093972;28;20051;-64
2022/07/09 05:37:44;;;;;;;13.65;6.45;;;33.10;84.10;;;;;;5094403;28;20047;-64
2022/07/09 05:40:11;;;;;;;8.93;6.05;;;33.10;83.60;;;;;;5102754;28;20035;-64
2022/07/09 05:42:39;;;;;;;14.80;5.90;;;33.10;83.50;;;;;;5103576;28;20077;-64
2022/07/09 05:45:06;;;;;;;10.18;3.75;;;33.20;83.50;;;;;;5102246;28;20052;-64
2022/07/09 05:47:33;;;;;;;9.63;3.97;;;33.40;80.40;;;;;;5102252;28;20035;-64
2022/07/09 05:49:59;;;;;;;17.27;4.82;;;33.50;79.30;;;;;;5103462;28;20016;-64
2022/07/09 05:52:26;;;;;;;13.95;7.45;;;33.50;78.50;;;;;;5111679;28;20473;-64
2022/07/09 05:54:53;;;;;;;12.68;5.63;;;33.50;80.70;;;;;;5114200;28;20016;-64
2022/07/09 05:57:19;;;;;;;13.77;5.03;;;33.60;79.90;;;;;;5114171;28;20481;-64
2022/07/09 05:59:46;;;;;;;13.13;5.72;;;33.60;79.40;;;;;;5114117;28;20080;-64
2022/07/09 06:02:12;;;;;;;14.35;6.25;;;33.60;79.70;;;;;;5114122;28;20019;-64
2022/07/09 06:04:39;;;;;;;30.33;16.63;;;33.60;78.50;;;;;;5113994;28;20034;-64
2022/07/09 06:07:05;;;;;;;10.13;3.95;;;33.60;79.50;;;;;;5113780;28;20606;-64
2022/07/09 06:09:32;;;;;;;13.73;5.22;;;33.60;76.80;;;;;;5113986;28;20036;-64
2022/07/09 06:11:59;;;;;;;10.98;5.30;;;33.70;79.60;;;;;;5113835;28;20034;-65
2022/07/09 06:14:25;;;;;;;7.82;3.22;;;33.70;77.00;;;;;;5113701;27;20464;-64
2022/07/09 06:16:54;;;;;;;14.80;5.65;;;33.70;75.50;;;;;;5106546;28;20434;-64
2022/07/09 06:19:20;;;;;;;8.40;4.93;;;33.60;76.80;;;;;;5113755;28;20027;-64
2022/07/09 06:21:47;;;;;;;8.57;5.10;;;33.80;75.80;;;;;;5113590;28;20471;-64
2022/07/09 06:24:13;;;;;;;11.50;5.70;;;33.90;76.10;;;;;;5114043;28;20028;-64
2022/07/09 06:26:40;;;;;;;9.60;4.05;;;33.90;73.20;;;;;;5113459;28;20039;-67
2022/07/09 06:29:09;;;;;;;15.65;5.80;;;34.00;75.10;;;;;;5113155;28;20050;-64
2022/07/09 06:31:36;;;;;;;14.40;4.65;;;34.00;74.30;;;;;;5113689;28;20038;-65
2022/07/09 06:34:03;;;;;;;11.77;3.88;;;34.10;74.80;;;;;;5106372;28;20019;-65
2022/07/09 06:36:29;;;;;;;13.10;4.47;;;34.10;74.40;;;;;;5093930;28;20037;-64
2022/07/09 06:41:42;;;;;;;5.28;2.95;;;34.00;73.90;;;;;;5108144;28;20036;-63
2022/07/09 06:44:08;;;;;;;7.10;3.47;;;34.10;72.00;;;;;;5092245;28;20097;-62
2022/07/09 06:46:35;;;;;;;10.32;3.45;;;34.10;71.70;;;;;;5092170;28;20035;-63
2022/07/09 06:49:02;;;;;;;12.77;4.18;;;34.10;72.50;;;;;;5091689;28;20049;-63
2022/07/09 06:51:28;;;;;;;11.70;4.72;;;34.20;72.50;;;;;;5094369;28;20019;-64
2022/07/09 06:53:55;;;;;;;11.20;4.35;;;34.20;71.90;;;;;;5101650;28;20462;-63
2022/07/09 06:56:22;;;;;;;11.68;4.78;;;34.30;71.60;;;;;;5100074;28;20171;-63
2022/07/09 06:58:49;;;;;;;7.22;2.95;;;34.50;70.10;;;;;;5101189;28;20539;-64
2022/07/09 07:01:15;;;;;;;13.07;4.45;;;34.50;67.80;;;;;;5093110;28;20028;-64
2022/07/09 07:03:42;;;;;;;10.95;5.45;;;34.40;68.40;;;;;;5092940;28;20035;-65
2022/07/09 07:06:08;;;;;;;12.23;4.53;;;34.40;71.20;;;;;;5100879;28;20020;-66
2022/07/09 07:08:35;;;;;;;7.88;4.70;;;34.50;70.70;;;;;;5102377;28;20023;-64
2022/07/09 07:11:01;;;;;;;10.93;4.20;;;34.50;70.50;;;;;;5100568;28;20024;-67
2022/07/09 07:13:28;;;;;;;10.70;4.00;;;34.60;67.60;;;;;;5103328;28;20361;-66
2022/07/09 07:15:54;;;;;;;12.30;4.10;;;34.60;68.80;;;;;;5099551;28;20028;-65
2022/07/09 07:18:21;;;;;;;9.45;4.05;;;34.50;69.00;;;;;;5103164;28;20068;-65
2022/07/09 07:20:47;;;;;;;10.48;4.03;;;34.50;69.20;;;;;;5101165;28;20031;-65
2022/07/09 07:23:15;;;;;;;16.30;4.90;;;34.40;71.70;;;;;;5103475;28;20016;-64
2022/07/09 07:25:43;;;;;;;9.52;5.25;;;34.50;71.70;;;;;;5101868;28;20044;-65
2022/07/09 07:28:09;;;;;;;14.07;5.88;;;34.50;71.20;;;;;;5101573;28;20113;-64
2022/07/09 07:30:36;;;;;;;12.50;5.57;;;34.50;72.10;;;;;;5105119;28;20024;-64
2022/07/09 07:33:02;;;;;;;10.35;4.55;;;34.40;72.10;;;;;;5106183;28;20104;-65
2022/07/09 07:35:29;;;;;;;8.93;4.43;;;34.40;71.70;;;;;;5107116;28;20023;-64
2022/07/09 07:37:58;;;;;;;10.23;5.40;;;34.30;72.10;;;;;;5105119;28;20111;-65
2022/07/09 07:40:24;;;;;;;9.10;4.15;;;34.30;71.80;;;;;;5105857;28;20016;-64
2022/07/09 07:42:51;;;;;;;18.10;4.75;;;34.20;71.80;;;;;;5106801;28;20039;-65
2022/07/09 07:45:18;;;;;;;10.65;4.32;;;34.10;72.40;;;;;;5105237;28;20105;-65
2022/07/09 07:47:44;;;;;;;9.85;4.90;;;34.20;72.60;;;;;;5105706;28;20028;-64
2022/07/09 07:50:11;;;;;;;11.00;4.90;;;34.30;73.90;;;;;;5106846;28;20030;-65
2022/07/09 07:52:37;;;;;;;10.63;4.22;;;34.30;73.00;;;;;;5116569;28;20097;-65
2022/07/09 07:55:04;;;;;;;14.30;5.47;;;34.40;73.10;;;;;;5113219;28;20015;-63
2022/07/09 07:57:31;;;;;;;15.38;7.90;;;34.40;71.50;;;;;;5116213;28;20054;-63
2022/07/09 07:59:58;;;;;;;19.38;12.43;;;34.40;72.70;;;;;;5116326;28;20472;-65
2022/07/09 08:02:24;;;;;;;10.18;5.68;;;34.30;72.20;;;;;;5116322;28;20114;-65
2022/07/09 08:04:51;;;;;;;9.52;4.45;;;34.40;72.80;;;;;;5116269;28;20506;-65
2022/07/09 08:07:17;;;;;;;8.95;5.20;;;34.50;70.30;;;;;;5116146;28;20107;-64
2022/07/09 08:09:44;;;;;;;14.85;9.13;;;34.60;69.50;;;;;;5115954;28;20032;-64
2022/07/09 08:12:10;;;;;;;42.22;30.10;;;34.60;69.90;;;;;;5115883;28;20034;-64
2022/07/09 08:14:37;;;;;;;21.65;12.32;;;34.60;71.70;;;;;;5116074;28;20055;-64
2022/07/09 08:17:03;;;;;;;20.27;12.50;;;34.60;70.30;;;;;;5102479;28;20022;-65
2022/07/09 08:19:30;;;;;;;13.68;7.32;;;34.70;68.80;;;;;;5102932;28;20027;-66
2022/07/09 08:21:56;;;;;;;14.88;8.57;;;34.60;68.00;;;;;;5115147;28;20031;-65
2022/07/09 08:24:23;;;;;;;19.38;12.30;;;34.50;67.90;;;;;;5103314;27;20448;-64
2022/07/09 08:26:49;;;;;;;15.85;9.32;;;34.50;69.70;;;;;;5094952;28;20031;-65
2022/07/09 08:29:16;;;;;;;26.23;13.32;;;34.40;69.50;;;;;;5095062;28;20070;-66
2022/07/09 08:31:42;;;;;;;38.50;15.15;;;34.40;69.80;;;;;;5102788;28;20016;-65
2022/07/09 08:34:09;;;;;;;12.75;6.15;;;34.30;68.50;;;;;;5102062;28;20023;-65
2022/07/09 08:36:35;;;;;;;13.50;5.65;;;34.30;68.80;;;;;;5114925;27;20039;-64
2022/07/09 08:39:02;;;;;;;10.82;6.03;;;34.20;67.20;;;;;;5096075;28;20028;-63
2022/07/09 08:41:29;;;;;;;15.80;6.93;;;34.10;69.00;;;;;;5103047;28;20055;-69
2022/07/09 08:43:55;;;;;;;25.58;17.27;;;34.10;70.70;;;;;;5105115;28;20043;-67
2022/07/09 08:46:22;;;;;;;14.27;6.95;;;34.20;69.10;;;;;;5105402;28;20361;-66
2022/07/09 08:48:50;;;;;;;17.63;10.70;;;34.10;66.90;;;;;;5103063;28;20426;-64
2022/07/09 08:51:19;;;;;;;16.38;10.32;;;34.10;69.30;;;;;;5103318;28;20448;-66
2022/07/09 08:53:46;;;;;;;21.58;14.95;;;34.10;69.00;;;;;;5103052;28;20035;-66
2022/07/09 08:56:13;;;;;;;18.20;12.00;;;34.10;68.00;;;;;;5103314;28;20024;-64
2022/07/09 08:58:39;;;;;;;26.75;15.32;;;34.10;69.10;;;;;;5100213;27;20041;-65
2022/07/09 09:01:06;;;;;;;22.73;15.88;;;34.10;69.70;;;;;;5102489;28;20106;-64
2022/07/09 09:03:33;;;;;;;15.45;9.15;;;34.00;69.70;;;;;;5102655;28;20476;-64
2022/07/09 09:06:06;;;;;;;17.83;7.38;;;34.00;69.70;;;;;;5100094;28;20039;-63
2022/07/09 09:08:38;;;;;;;16.55;7.53;;;34.00;69.10;;;;;;5099716;28;20095;-67
2022/07/09 09:11:12;;;;;;;17.13;10.05;;;34.00;70.70;;;;;;5103129;28;20427;-64
2022/07/09 09:13:49;;;;;;;25.98;15.90;;;33.90;70.80;;;;;;5097854;28;20016;-64
2022/07/09 09:16:17;;;;;;;22.90;14.77;;;33.80;71.10;;;;;;5094843;28;20028;-64
2022/07/09 09:18:46;;;;;;;21.98;10.93;;;33.80;71.80;;;;;;5101506;28;20066;-64
2022/07/09 09:21:13;;;;;;;13.73;7.53;;;33.80;71.70;;;;;;5103669;28;20072;-64
2022/07/09 09:23:54;;;;;;;15.77;7.35;;;33.70;70.40;;;;;;5103300;28;20032;-64
2022/07/09 09:26:24;;;;;;;11.55;7.40;;;33.60;70.20;;;;;;5104648;28;20245;-64
2022/07/09 09:28:54;;;;;;;23.55;12.10;;;33.50;70.70;;;;;;5104606;28;20023;-64
2022/07/09 09:31:21;;;;;;;24.98;14.13;;;33.50;71.70;;;;;;5100317;28;20028;-64
2022/07/09 09:33:49;;;;;;;26.10;16.60;;;33.50;73.30;;;;;;5103384;28;20019;-63
2022/07/09 09:36:33;;;;;;;23.30;12.93;;;33.50;72.90;;;;;;5100280;28;20019;-64
2022/07/09 09:39:23;;;;;;;26.35;16.63;;;33.50;72.90;;;;;;5104024;28;20364;-64
2022/07/09 09:41:54;;;;;;;21.38;12.65;;;33.50;72.30;;;;;;5104809;28;20096;-64
2022/07/09 09:44:37;;;;;;;24.02;12.95;;;33.50;73.20;;;;;;5102878;28;20024;-66
2022/07/09 09:47:05;;;;;;;13.50;8.88;;;33.50;72.50;;;;;;5107304;28;20066;-64
2022/07/09 09:49:32;;;;;;;26.20;8.55;;;33.50;72.20;;;;;;5104335;28;20036;-64
2022/07/09 09:52:02;;;;;;;39.28;15.07;;;33.40;71.90;;;;;;5105449;28;20472;-64
2022/07/09 09:54:32;;;;;;;25.58;14.48;;;33.40;73.50;;;;;;5097941;28;20028;-64
2022/07/09 09:57:00;;;;;;;32.42;16.90;;;33.50;73.40;;;;;;5094033;28;20534;-63
2022/07/09 09:59:27;;;;;;;28.73;12.23;;;33.50;74.00;;;;;;5093707;28;20028;-64
2022/07/09 10:01:53;;;;;;;26.17;13.63;;;33.40;72.80;;;;;;5096442;28;20039;-64
2022/07/09 10:04:21;;;;;;;29.05;17.10;;;33.40;73.90;;;;;;5102268;28;20533;-62
2022/07/09 10:06:47;;;;;;;42.38;21.67;;;33.40;74.90;;;;;;5105103;28;20039;-64
2022/07/09 10:09:15;;;;;;;29.45;16.08;;;33.40;73.70;;;;;;5114774;28;20491;-62
2022/07/09 10:11:45;;;;;;;32.50;24.38;;;33.40;72.10;;;;;;5114417;28;20055;-63
2022/07/09 10:14:28;;;;;;;46.70;25.40;;;33.30;72.50;;;;;;5114079;28;20027;-65
2022/07/09 10:16:55;;;;;;;117.15;80.20;;;33.30;71.90;;;;;;5112689;28;20024;-69
2022/07/09 10:19:29;;;;;;;61.20;42.10;;;33.20;73.90;;;;;;5107487;28;20031;-70
2022/07/09 10:21:58;;;;;;;31.17;18.45;;;33.30;73.50;;;;;;5095009;28;20497;-71
2022/07/09 10:24:27;;;;;;;107.55;61.45;;;33.20;73.40;;;;;;5104371;28;20035;-72
2022/07/09 10:27:03;;;;;;;94.20;60.88;;;33.10;72.90;;;;;;5112298;28;20023;-69
2022/07/09 10:29:29;;;;;;;57.03;38.42;;;33.10;72.70;;;;;;5114333;28;20390;-72
2022/07/09 10:31:57;;;;;;;60.05;31.30;;;33.10;73.00;;;;;;5114153;28;20024;-71
2022/07/09 10:34:32;;;;;;;37.45;20.50;;;33.10;72.90;;;;;;5105999;28;20031;-71
2022/07/09 10:37:02;;;;;;;85.82;56.42;;;33.10;73.90;;;;;;5101926;28;20031;-72
2022/07/09 10:39:29;;;;;;;92.13;59.28;;;33.10;73.90;;;;;;5100463;28;20027;-72
2022/07/09 10:42:17;;;;;;;64.55;45.88;;;33.00;74.20;;;;;;5103179;28;20103;-71
2022/07/09 10:44:45;;;;;;;63.97;37.08;;;33.00;74.70;;;;;;5100475;28;20019;-70
2022/07/09 10:47:12;;;;;;;123.72;78.35;;;33.00;74.60;;;;;;5102684;28;20112;-69
2022/07/09 10:49:40;;;;;;;58.08;37.72;;;32.90;73.50;;;;;;5101983;28;20036;-70
2022/07/09 10:52:07;;;;;;;105.95;60.05;;;32.80;73.30;;;;;;5102172;28;20012;-71
2022/07/09 10:54:44;;;;;;;87.43;51.70;;;32.80;74.50;;;;;;5101868;28;20019;-64
2022/07/09 10:57:12;;;;;;;147.75;100.25;;;32.70;74.20;;;;;;5101028;28;20027;-64
2022/07/09 10:59:39;;;;;;;140.63;87.82;;;32.70;75.20;;;;;;5099872;28;20068;-64
2022/07/09 11:02:05;;;;;;;75.45;50.95;;;32.70;76.10;;;;;;5100088;28;20027;-62
2022/07/09 11:04:34;;;;;;;120.18;72.45;;;32.60;76.00;;;;;;5101741;28;20480;-62
2022/07/09 11:07:01;;;;;;;133.27;81.40;;;32.60;76.20;;;;;;5105539;28;20036;-62
2022/07/09 11:09:29;;;;;;;104.88;60.50;;;32.50;77.80;;;;;;5106480;28;20020;-63
2022/07/09 11:11:55;;;;;;;85.85;49.50;;;32.50;77.10;;;;;;5104987;28;20020;-62
2022/07/09 11:14:22;;;;;;;56.00;33.70;;;32.50;77.30;;;;;;5104556;28;20407;-62
2022/07/09 11:16:59;;;;;;;72.88;43.63;;;32.40;76.70;;;;;;5104320;28;20535;-62
2022/07/09 11:19:25;;;;;;;120.10;70.53;;;32.30;76.90;;;;;;5105947;28;20032;-62
2022/07/09 11:22:02;;;;;;;190.40;110.15;;;32.30;77.10;;;;;;5107327;28;20102;-62
2022/07/09 11:24:29;;;;;;;170.93;97.30;;;32.20;77.00;;;;;;5101652;28;20144;-63
2022/07/09 11:27:05;;;;;;;110.82;64.57;;;32.30;77.50;;;;;;5100937;28;20115;-64
2022/07/09 11:29:33;;;;;;;115.18;61.25;;;32.20;76.90;;;;;;5113730;28;20028;-64
2022/07/09 11:32:01;;;;;;;102.72;59.13;;;32.20;77.80;;;;;;5117149;28;20039;-63
2022/07/09 11:34:29;;;;;;;97.45;55.63;;;32.10;77.90;;;;;;5110654;28;20142;-64
2022/07/09 11:36:58;;;;;;;123.95;68.07;;;32.20;77.80;;;;;;5103739;28;20111;-64
2022/07/09 11:39:28;;;;;;;114.97;62.45;;;32.20;78.70;;;;;;5096762;28;20112;-63
2022/07/09 11:41:56;;;;;;;108.25;56.47;;;32.10;78.60;;;;;;5096712;28;20031;-63
2022/07/09 11:44:28;;;;;;;85.28;45.75;;;32.10;78.10;;;;;;5101844;28;20376;-63
2022/07/09 11:47:10;;;;;;;81.18;41.05;;;32.00;78.80;;;;;;5103331;27;20059;-64
2022/07/09 11:49:41;;;;;;;60.17;35.42;;;31.90;82.10;;;;;;5096277;28;20024;-64
2022/07/09 11:52:20;;;;;;;65.25;36.97;;;31.80;84.40;;;;;;5097233;28;20028;-63
2022/07/09 11:54:58;;;;;;;72.60;43.92;;;31.70;86.90;;;;;;5096147;28;20116;-64
2022/07/09 11:57:25;;;;;;;69.25;45.22;;;31.50;89.60;;;;;;5095962;28;20494;-63
2022/07/09 11:59:52;;;;;;;72.72;47.30;;;31.30;91.10;;;;;;5096092;28;20419;-63
2022/07/09 12:02:39;;;;;;;63.50;35.38;;;31.10;91.90;;;;;;5099051;28;20076;-62
2022/07/09 12:05:08;;;;;;;72.85;45.03;;;31.00;92.50;;;;;;5103970;28;20064;-64
2022/07/09 12:07:36;;;;;;;62.67;39.80;;;30.90;93.00;;;;;;5101563;28;20081;-63
2022/07/09 12:10:06;;;;;;;65.78;43.20;;;30.90;93.30;;;;;;5104116;28;20509;-63
2022/07/09 12:12:34;;;;;;;73.72;46.10;;;30.80;93.90;;;;;;5105094;27;20047;-63
2022/07/09 12:15:02;;;;;;;115.55;80.00;;;30.80;94.10;;;;;;5103446;28;20437;-63
2022/07/09 12:17:30;;;;;;;67.75;43.10;;;30.70;94.40;;;;;;5106470;28;20062;-64
2022/07/09 12:19:58;;;;;;;56.92;36.55;;;30.70;94.70;;;;;;5112460;28;20035;-63
2022/07/09 12:22:25;;;;;;;55.42;33.08;;;30.70;95.40;;;;;;5106919;28;20031;-65
2022/07/09 12:25:01;;;;;;;54.88;34.63;;;30.70;95.20;;;;;;5105075;28;20126;-64
2022/07/09 12:27:28;;;;;;;59.00;34.75;;;30.60;95.10;;;;;;5104459;28;20134;-64
2022/07/09 12:29:54;;;;;;;59.05;35.53;;;30.50;95.50;;;;;;5105461;28;20024;-64
2022/07/09 12:32:21;;;;;;;55.60;32.88;;;30.50;95.80;;;;;;5105522;28;20134;-63
2022/07/09 12:34:50;;;;;;;49.03;30.45;;;30.40;95.80;;;;;;5104804;27;20510;-64
2022/07/09 12:37:16;;;;;;;53.42;34.65;;;30.40;96.20;;;;;;5101709;28;20045;-63